createdAt,value
2023-01-25T00:00:52.793Z,50.27
2023-01-25T00:03:20.590Z,50.30
2023-01-25T00:05:48.081Z,50.29
2023-01-25T00:08:15.703Z,48.86
2023-01-25T00:10:43.217Z,50.33
2023-01-25T00:13:10.774Z,49.14
2023-01-25T00:15:38.275Z,49.90
2023-01-25T00:18:05.936Z,49.50
2023-01-25T00:20:33.464Z,49.23
2023-01-25T00:23:00.939Z,49.39
2023-01-25T00:25:28.467Z,48.61
2023-01-25T00:27:55.905Z,48.27
2023-01-25T00:30:23.417Z,47.44
2023-01-25T00:33:23.738Z,46.79
2023-01-25T00:35:51.415Z,47.80
2023-01-25T00:38:29.885Z,48.08
2023-01-25T00:40:59.180Z,48.01
2023-01-25T00:43:27.054Z,47.75
2023-01-25T00:46:01.192Z,47.64
2023-01-25T00:48:28.923Z,47.52
2023-01-25T00:51:01.437Z,47.67
2023-01-25T00:53:29.059Z,47.87
2023-01-25T00:55:56.748Z,47.95
2023-01-25T00:58:25.282Z,48.20
2023-01-25T01:00:54.454Z,48.18
2023-01-25T01:03:24.169Z,48.39
2023-01-25T01:06:21.138Z,48.64
2023-01-25T01:08:48.991Z,48.38
2023-01-25T01:11:16.430Z,48.52
2023-01-25T01:13:43.972Z,48.22
2023-01-25T01:16:14.132Z,48.85
2023-01-25T01:18:44.235Z,48.97
2023-01-25T01:21:13.710Z,48.91
2023-01-25T01:23:41.604Z,48.64
2023-01-25T01:26:15.433Z,49.19
2023-01-25T01:28:43.502Z,49.18
2023-01-25T01:31:31.451Z,50.15
2023-01-25T01:34:14.882Z,49.54
2023-01-25T01:36:43.153Z,49.21
2023-01-25T01:39:10.806Z,49.03
2023-01-25T01:41:38.921Z,49.21
2023-01-25T01:44:16.400Z,49.97
2023-01-25T01:46:51.872Z,48.75
2023-01-25T01:49:28.490Z,50.06
2023-01-25T01:52:17.048Z,49.68
2023-01-25T01:55:09.693Z,49.68
2023-01-25T01:57:43.874Z,49.10
2023-01-25T02:00:21.269Z,49.64
2023-01-25T02:02:51.142Z,49.82
2023-01-25T02:05:30.830Z,50.32
2023-01-25T02:07:59.497Z,49.39
2023-01-25T02:10:28.752Z,49.98
2023-01-25T02:12:58.801Z,49.61
2023-01-25T02:15:37.853Z,50.40
2023-01-25T02:18:05.395Z,49.64
2023-01-25T02:20:38.311Z,50.73
2023-01-25T02:23:36.108Z,50.63
2023-01-25T02:26:06.109Z,50.50
2023-01-25T02:28:38.999Z,50.24
2023-01-25T02:31:07.065Z,50.21
2023-01-25T02:33:35.052Z,49.32
2023-01-25T02:36:07.323Z,47.84
2023-01-25T02:38:45.800Z,48.90
2023-01-25T02:41:18.904Z,48.41
2023-01-25T02:43:46.841Z,49.20
2023-01-25T02:46:21.137Z,48.70
2023-01-25T02:48:49.074Z,48.12
2023-01-25T02:51:16.522Z,48.11
2023-01-25T02:53:44.103Z,49.28
2023-01-25T02:56:11.594Z,49.26
2023-01-25T02:58:39.112Z,48.83
2023-01-25T03:01:06.795Z,47.67
2023-01-25T03:03:34.342Z,47.34
2023-01-25T03:06:02.424Z,47.80
2023-01-25T03:08:30.678Z,47.62
2023-01-25T03:11:00.968Z,47.40
2023-01-25T03:13:32.476Z,48.31
2023-01-25T03:16:02.950Z,48.63
2023-01-25T03:18:30.788Z,49.42
2023-01-25T03:21:08.750Z,49.86
2023-01-25T03:23:37.842Z,49.36
2023-01-25T03:26:20.122Z,48.18
2023-01-25T03:29:05.839Z,48.08
2023-01-25T03:31:35.988Z,48.67
2023-01-25T03:34:03.523Z,49.88
2023-01-25T03:36:35.510Z,49.75
2023-01-25T03:39:04.198Z,49.71
2023-01-25T03:41:36.718Z,49.79
2023-01-25T03:44:11.732Z,49.85
2023-01-25T03:46:41.319Z,50.25
2023-01-25T03:49:09.554Z,50.00
2023-01-25T03:51:37.327Z,49.88
2023-01-25T03:54:05.730Z,51.19
2023-01-25T03:56:36.770Z,49.98
2023-01-25T03:59:12.816Z,49.53
2023-01-25T04:01:40.618Z,49.71
2023-01-25T04:04:08.602Z,50.11
2023-01-25T04:06:38.566Z,50.46
2023-01-25T04:09:06.847Z,50.98
2023-01-25T04:11:39.711Z,50.97
2023-01-25T04:14:07.322Z,50.32
2023-01-25T04:16:44.202Z,50.01
2023-01-25T04:19:38.113Z,49.09
2023-01-25T04:22:09.609Z,50.19
2023-01-25T04:24:39.234Z,49.51
2023-01-25T04:27:07.149Z,50.33
2023-01-25T04:29:42.040Z,50.28
2023-01-25T04:32:15.773Z,49.67
2023-01-25T04:34:43.738Z,49.65
2023-01-25T04:37:15.759Z,48.54
2023-01-25T04:39:56.827Z,49.37
2023-01-25T04:42:24.923Z,48.92
2023-01-25T04:44:55.732Z,49.56
2023-01-25T04:47:23.713Z,49.21
2023-01-25T04:49:51.680Z,49.27
2023-01-25T04:52:22.937Z,50.54
2023-01-25T04:54:50.457Z,50.69
2023-01-25T04:57:18.562Z,52.04
2023-01-25T04:59:50.894Z,53.06
2023-01-25T05:02:19.226Z,54.22
2023-01-25T05:04:46.761Z,56.59
2023-01-25T05:07:14.500Z,57.17
2023-01-25T05:09:42.361Z,54.74
2023-01-25T05:12:13.929Z,55.82
2023-01-25T05:14:57.736Z,56.38
2023-01-25T05:17:25.697Z,58.48
2023-01-25T05:19:53.402Z,60.88
2023-01-25T05:22:23.644Z,59.60
2023-01-25T05:24:54.255Z,59.46
2023-01-25T05:27:23.317Z,59.78
2023-01-25T05:29:57.314Z,59.37
2023-01-25T05:32:53.798Z,59.75
2023-01-25T05:35:23.225Z,61.34
2023-01-25T05:37:58.815Z,60.34
2023-01-25T05:40:27.436Z,59.56
2023-01-25T05:43:02.847Z,60.56
2023-01-25T05:45:31.807Z,61.69
2023-01-25T05:47:59.820Z,58.29
2023-01-25T05:50:28.253Z,59.45
2023-01-25T05:53:01.269Z,54.01
2023-01-25T05:55:30.212Z,54.66
2023-01-25T05:58:02.504Z,54.42
2023-01-25T06:00:30.092Z,54.52
2023-01-25T06:03:01.322Z,52.33
2023-01-25T06:05:31.078Z,52.79
2023-01-25T06:07:58.871Z,52.94
2023-01-25T06:10:32.106Z,52.98
2023-01-25T06:13:00.283Z,52.64
2023-01-25T06:15:28.186Z,52.79
2023-01-25T06:18:03.747Z,50.67
2023-01-25T06:21:07.002Z,52.97
2023-01-25T06:23:37.506Z,53.22
2023-01-25T06:26:12.101Z,55.06
2023-01-25T06:28:40.418Z,56.83
2023-01-25T06:31:10.928Z,55.34
2023-01-25T06:33:39.535Z,57.87
2023-01-25T06:36:12.649Z,60.23
2023-01-25T06:38:41.146Z,59.05
2023-01-25T06:41:12.149Z,56.38
2023-01-25T06:43:40.022Z,56.03
2023-01-25T06:46:09.431Z,56.22
2023-01-25T06:48:37.013Z,53.13
2023-01-25T06:51:07.694Z,51.11
2023-01-25T06:53:38.665Z,52.69
2023-01-25T06:56:10.956Z,54.46
2023-01-25T06:58:40.754Z,52.69
2023-01-25T07:01:20.812Z,53.34
2023-01-25T07:03:53.394Z,53.79
2023-01-25T07:06:22.034Z,58.14
2023-01-25T07:08:49.952Z,56.63
2023-01-25T07:11:19.371Z,56.79
2023-01-25T07:13:48.325Z,57.11
2023-01-25T07:16:20.668Z,59.74
2023-01-25T07:18:48.592Z,58.20
2023-01-25T07:21:17.562Z,59.67
2023-01-25T07:23:45.159Z,58.21
2023-01-25T07:26:22.791Z,53.23
2023-01-25T07:28:50.983Z,52.52
2023-01-25T07:31:20.351Z,52.87
2023-01-25T07:33:53.889Z,52.58
2023-01-25T07:36:22.188Z,52.88
2023-01-25T07:38:54.039Z,53.99
2023-01-25T07:41:22.428Z,54.10
2023-01-25T07:43:52.604Z,55.21
2023-01-25T07:46:41.558Z,58.26
2023-01-25T07:49:09.379Z,57.85
2023-01-25T07:51:36.940Z,57.47
2023-01-25T07:54:05.669Z,58.32
2023-01-25T07:56:38.026Z,60.39
2023-01-25T07:59:08.535Z,58.40
2023-01-25T08:01:37.323Z,58.35
2023-01-25T08:04:05.854Z,56.90
2023-01-25T08:06:36.355Z,54.86
2023-01-25T08:09:22.789Z,54.52
2023-01-25T08:11:50.523Z,49.67
2023-01-25T08:14:18.257Z,48.88
2023-01-25T08:16:45.722Z,46.51
2023-01-25T08:19:13.255Z,45.83
2023-01-25T08:21:40.996Z,45.62
2023-01-25T08:24:09.926Z,45.34
2023-01-25T08:26:38.174Z,44.83
2023-01-25T08:29:06.961Z,45.30
2023-01-25T08:31:36.314Z,44.38
2023-01-25T08:34:04.687Z,44.15
2023-01-25T08:36:32.282Z,43.09
2023-01-25T08:39:02.776Z,43.02
2023-01-25T08:41:32.879Z,42.11
2023-01-25T08:44:00.432Z,42.63
2023-01-25T08:46:32.093Z,42.68
2023-01-25T08:49:01.618Z,42.28
2023-01-25T08:51:31.831Z,42.79
2023-01-25T08:54:04.517Z,43.17
2023-01-25T08:56:32.135Z,43.09
2023-01-25T08:58:59.649Z,42.04
2023-01-25T09:01:27.143Z,42.63
2023-01-25T09:03:55.537Z,41.93
2023-01-25T09:06:23.062Z,41.67
2023-01-25T09:08:50.777Z,41.48
2023-01-25T09:11:21.334Z,41.89
2023-01-25T09:13:49.495Z,41.37
2023-01-25T09:16:29.016Z,41.99
2023-01-25T09:18:58.491Z,42.19
2023-01-25T09:21:26.023Z,41.54
2023-01-25T09:24:10.009Z,42.93
2023-01-25T09:26:43.032Z,42.13
2023-01-25T09:29:13.712Z,42.16
2023-01-25T09:31:44.021Z,42.23
2023-01-25T09:34:32.508Z,42.47
2023-01-25T09:37:00.084Z,42.65
2023-01-25T09:39:27.533Z,42.45
2023-01-25T09:42:32.991Z,42.75
2023-01-25T09:45:12.634Z,41.94
2023-01-25T09:47:59.704Z,42.88
2023-01-25T09:51:14.163Z,42.89
2023-01-25T09:54:01.457Z,42.71
2023-01-25T09:56:35.866Z,42.64
2023-01-25T09:59:16.351Z,43.13
2023-01-25T10:01:51.974Z,42.58
2023-01-25T10:04:23.796Z,42.57
2023-01-25T10:07:00.991Z,42.61
2023-01-25T10:09:34.845Z,42.16
2023-01-25T10:12:15.696Z,41.81
2023-01-25T10:14:43.365Z,41.82
2023-01-25T10:17:26.094Z,42.51
2023-01-25T10:20:17.987Z,42.19
2023-01-25T10:22:51.878Z,41.34
2023-01-25T10:25:37.718Z,42.09
2023-01-25T10:28:28.499Z,41.43
2023-01-25T10:31:03.093Z,41.23
2023-01-25T10:33:36.313Z,41.66
2023-01-25T10:36:05.130Z,42.09
2023-01-25T10:38:45.682Z,41.93
2023-01-25T10:41:27.187Z,41.79
2023-01-25T10:44:13.438Z,42.04
2023-01-25T10:46:44.642Z,41.75
2023-01-25T10:49:27.497Z,42.90
2023-01-25T10:51:55.710Z,42.33
2023-01-25T10:54:24.438Z,42.80
2023-01-25T10:56:53.408Z,41.49
2023-01-25T10:59:25.945Z,41.31
2023-01-25T11:01:53.685Z,41.44
2023-01-25T11:04:45.866Z,42.65
2023-01-25T11:07:27.798Z,42.53
2023-01-25T11:09:55.499Z,42.16
2023-01-25T11:12:23.116Z,42.68
2023-01-25T11:14:51.397Z,42.47
2023-01-25T11:17:31.933Z,43.02
2023-01-25T11:20:16.397Z,42.24
2023-01-25T11:22:55.756Z,42.81
2023-01-25T11:25:32.227Z,43.07
2023-01-25T11:28:19.168Z,43.91
2023-01-25T11:30:47.879Z,42.52
2023-01-25T11:33:17.381Z,43.06
2023-01-25T11:36:13.888Z,43.80
2023-01-25T11:39:03.565Z,43.39
2023-01-25T11:41:46.764Z,43.69
2023-01-25T11:44:20.374Z,42.21
2023-01-25T11:47:32.903Z,42.71
2023-01-25T11:50:00.339Z,42.74
2023-01-25T11:52:37.540Z,41.67
2023-01-25T11:55:26.576Z,41.82
2023-01-25T11:58:07.008Z,42.37
2023-01-25T12:01:05.142Z,41.75
2023-01-25T12:04:17.944Z,41.86
2023-01-25T12:07:20.725Z,42.49
2023-01-25T12:10:08.280Z,42.28
2023-01-25T12:12:42.620Z,41.62
2023-01-25T12:15:22.211Z,42.61
2023-01-25T12:18:20.231Z,42.57
2023-01-25T12:21:11.825Z,41.77
2023-01-25T12:23:59.615Z,42.16
2023-01-25T12:27:05.019Z,43.47
2023-01-25T12:29:48.576Z,42.40
2023-01-25T12:32:34.032Z,42.76
2023-01-25T12:35:25.976Z,43.25
2023-01-25T12:38:00.099Z,43.03
2023-01-25T12:40:41.959Z,42.81
2023-01-25T12:43:37.592Z,43.33
2023-01-25T12:46:30.309Z,43.48
2023-01-25T12:49:04.130Z,42.21
2023-01-25T12:51:40.168Z,43.42
2023-01-25T12:54:20.289Z,42.89
2023-01-25T12:57:10.527Z,43.35
2023-01-25T12:59:56.293Z,43.33
2023-01-25T13:02:45.391Z,43.42
2023-01-25T13:05:24.992Z,43.65
2023-01-25T13:08:30.114Z,43.72
2023-01-25T13:11:33.897Z,43.03
2023-01-25T13:14:16.620Z,42.71
2023-01-25T13:17:08.547Z,43.03
2023-01-25T13:19:37.942Z,43.34
2023-01-25T13:22:05.835Z,43.74
2023-01-25T13:24:54.434Z,43.37
2023-01-25T13:27:29.717Z,43.50
2023-01-25T13:30:18.577Z,43.46
2023-01-25T13:32:52.483Z,44.04
2023-01-25T13:35:33.384Z,43.91
2023-01-25T13:38:11.829Z,43.25
2023-01-25T13:40:40.816Z,43.82
2023-01-25T13:43:22.780Z,43.86
2023-01-25T13:45:53.617Z,44.29
2023-01-25T13:48:29.187Z,44.22
2023-01-25T13:51:05.728Z,44.48
2023-01-25T13:53:39.884Z,43.70
2023-01-25T13:56:25.521Z,44.52
2023-01-25T13:58:53.198Z,43.98
2023-01-25T14:01:24.000Z,43.57
2023-01-25T14:03:59.970Z,44.43
2023-01-25T14:06:34.842Z,44.39
2023-01-25T14:09:08.325Z,44.68
2023-01-25T14:11:44.121Z,44.20
2023-01-25T14:14:25.374Z,45.54
2023-01-25T14:17:14.469Z,44.94
2023-01-25T14:19:51.376Z,44.77
2023-01-25T14:22:27.636Z,44.63
2023-01-25T14:25:10.025Z,44.19
2023-01-25T14:27:46.039Z,45.20
2023-01-25T14:30:40.393Z,45.45
2023-01-25T14:33:29.096Z,45.71
2023-01-25T14:36:16.159Z,44.91
2023-01-25T14:38:53.126Z,44.33
2023-01-25T14:41:34.296Z,45.00
2023-01-25T14:44:10.856Z,44.68
2023-01-25T14:46:39.646Z,44.15
2023-01-25T14:49:27.651Z,44.78
2023-01-25T14:52:14.748Z,44.75
2023-01-25T14:55:00.133Z,45.35
2023-01-25T14:57:37.204Z,44.60
2023-01-25T15:00:24.501Z,44.96
2023-01-25T15:02:56.606Z,44.62
2023-01-25T15:05:35.543Z,44.57
2023-01-25T15:08:09.239Z,44.34
2023-01-25T15:10:38.590Z,44.63
2023-01-25T15:13:15.545Z,44.51
2023-01-25T15:15:58.772Z,44.37
2023-01-25T15:18:52.624Z,44.33
2023-01-25T15:21:26.195Z,44.35
2023-01-25T15:23:55.735Z,44.14
2023-01-25T15:26:31.135Z,44.57
2023-01-25T15:29:16.769Z,44.14
2023-01-25T15:31:44.826Z,44.03
2023-01-25T15:34:26.119Z,44.55
2023-01-25T15:36:54.349Z,44.34
2023-01-25T15:39:22.238Z,44.82
2023-01-25T15:41:50.161Z,45.46
2023-01-25T15:44:20.457Z,45.08
2023-01-25T15:46:51.243Z,45.32
2023-01-25T15:49:25.990Z,44.89
2023-01-25T15:51:55.179Z,44.45
2023-01-25T15:54:23.933Z,45.24
2023-01-25T15:56:55.900Z,45.67
2023-01-25T15:59:23.686Z,46.05
2023-01-25T16:01:51.400Z,46.17
2023-01-25T16:04:19.131Z,45.50
2023-01-25T16:06:53.042Z,45.57
2023-01-25T16:09:30.155Z,45.93
2023-01-25T16:11:59.724Z,45.77
2023-01-25T16:14:30.603Z,45.52
2023-01-25T16:17:02.121Z,45.04
2023-01-25T16:19:30.453Z,45.24
2023-01-25T16:21:58.381Z,45.59
2023-01-25T16:24:26.171Z,45.32
2023-01-25T16:27:03.709Z,46.53
2023-01-25T16:29:37.723Z,45.20
2023-01-25T16:32:05.371Z,45.71
2023-01-25T16:34:32.888Z,46.19
2023-01-25T16:37:02.065Z,45.96
2023-01-25T16:39:29.624Z,45.79
2023-01-25T16:41:59.792Z,46.52
2023-01-25T16:44:27.536Z,46.40
2023-01-25T16:46:55.845Z,46.00
2023-01-25T16:49:28.429Z,46.12
2023-01-25T16:52:00.391Z,45.74
2023-01-25T16:54:28.260Z,45.50
2023-01-25T16:56:59.035Z,44.46
2023-01-25T16:59:27.979Z,44.86
2023-01-25T17:01:56.489Z,43.98
2023-01-25T17:04:24.355Z,44.27
2023-01-25T17:06:53.520Z,43.85
2023-01-25T17:09:24.088Z,44.21
2023-01-25T17:11:56.327Z,44.51
2023-01-25T17:14:24.094Z,45.16
2023-01-25T17:16:55.340Z,45.18
2023-01-25T17:19:28.868Z,45.48
2023-01-25T17:22:01.807Z,45.00
2023-01-25T17:24:31.856Z,45.46
2023-01-25T17:27:01.339Z,45.43
2023-01-25T17:29:32.786Z,45.05
2023-01-25T17:32:00.466Z,44.45
2023-01-25T17:34:28.062Z,43.91
2023-01-25T17:36:55.877Z,45.08
2023-01-25T17:39:23.535Z,44.03
2023-01-25T17:41:52.037Z,43.82
2023-01-25T17:44:22.121Z,44.59
2023-01-25T17:46:51.678Z,44.39
2023-01-25T17:49:19.836Z,43.56
2023-01-25T17:51:47.407Z,43.67
2023-01-25T17:54:15.391Z,43.81
2023-01-25T17:56:42.949Z,43.85
2023-01-25T17:59:11.892Z,43.64
2023-01-25T18:01:40.239Z,43.21
2023-01-25T18:04:08.937Z,43.29
2023-01-25T18:06:37.007Z,43.54
2023-01-25T18:09:06.851Z,43.37
2023-01-25T18:11:35.768Z,43.52
2023-01-25T18:14:09.554Z,43.44
2023-01-25T18:16:39.519Z,43.54
2023-01-25T18:19:08.414Z,43.58
2023-01-25T18:21:36.492Z,43.65
2023-01-25T18:24:08.156Z,42.98
2023-01-25T18:26:37.388Z,43.32
2023-01-25T18:29:11.083Z,43.51
2023-01-25T18:31:38.801Z,43.71
2023-01-25T18:34:06.317Z,44.05
2023-01-25T18:36:34.056Z,44.60
2023-01-25T18:39:01.764Z,44.59
2023-01-25T18:41:29.339Z,44.63
2023-01-25T18:43:57.076Z,44.13
2023-01-25T18:46:24.709Z,45.15
2023-01-25T18:48:53.697Z,45.56
2023-01-25T18:51:23.467Z,43.47
2023-01-25T18:53:51.462Z,45.92
2023-01-25T18:56:21.795Z,47.82
2023-01-25T18:58:51.281Z,47.82
2023-01-25T19:01:23.268Z,50.00
2023-01-25T19:03:55.875Z,50.43
2023-01-25T19:06:28.858Z,49.77
2023-01-25T19:08:57.468Z,50.80
2023-01-25T19:11:25.001Z,50.52
2023-01-25T19:13:52.482Z,50.81
2023-01-25T19:16:24.675Z,54.27
2023-01-25T19:18:54.626Z,52.97
2023-01-25T19:21:28.057Z,53.69
2023-01-25T19:23:56.683Z,55.46
2023-01-25T19:26:25.941Z,55.29
2023-01-25T19:28:54.320Z,54.85
2023-01-25T19:31:24.158Z,57.20
2023-01-25T19:33:56.915Z,57.06
2023-01-25T19:36:24.440Z,55.71
2023-01-25T19:38:51.959Z,56.89
2023-01-25T19:41:25.324Z,56.61
2023-01-25T19:44:03.560Z,54.74
2023-01-25T19:46:33.168Z,53.54
2023-01-25T19:49:02.423Z,54.86
2023-01-25T19:51:35.540Z,54.89
2023-01-25T19:54:06.710Z,53.95
2023-01-25T19:56:36.858Z,54.40
2023-01-25T19:59:07.427Z,54.38
2023-01-25T20:01:37.470Z,51.48
2023-01-25T20:04:08.267Z,49.47
2023-01-25T20:06:35.948Z,49.18
2023-01-25T20:09:03.707Z,49.99
2023-01-25T20:11:33.114Z,51.69
2023-01-25T20:14:03.910Z,52.01
2023-01-25T20:16:33.389Z,51.71
2023-01-25T20:19:02.393Z,51.82
2023-01-25T20:21:31.686Z,49.42
2023-01-25T20:24:04.154Z,48.88
2023-01-25T20:26:34.690Z,49.39
2023-01-25T20:29:02.338Z,49.01
2023-01-25T20:31:38.328Z,47.52
2023-01-25T20:34:10.227Z,49.37
2023-01-25T20:36:37.896Z,49.98
2023-01-25T20:39:06.991Z,50.04
2023-01-25T20:41:35.886Z,48.88
2023-01-25T20:44:11.502Z,47.04
2023-01-25T20:46:40.865Z,45.87
2023-01-25T20:49:11.565Z,45.17
2023-01-25T20:51:40.174Z,46.20
2023-01-25T20:54:07.721Z,44.70
2023-01-25T20:56:36.794Z,45.12
2023-01-25T20:59:04.510Z,44.89
2023-01-25T21:01:37.557Z,45.73
2023-01-25T21:04:08.234Z,45.41
2023-01-25T21:06:36.247Z,45.74
2023-01-25T21:09:04.511Z,44.58
2023-01-25T21:11:32.626Z,43.90
2023-01-25T21:14:00.210Z,45.47
2023-01-25T21:16:28.181Z,45.20
2023-01-25T21:18:58.226Z,44.78
2023-01-25T21:21:28.526Z,44.67
2023-01-25T21:24:00.426Z,44.75
2023-01-25T21:26:33.063Z,45.13
2023-01-25T21:29:06.710Z,44.21
2023-01-25T21:31:39.552Z,44.73
2023-01-25T21:34:08.576Z,45.68
2023-01-25T21:36:36.134Z,46.08
2023-01-25T21:39:03.805Z,44.46
2023-01-25T21:41:33.932Z,45.59
2023-01-25T21:44:20.629Z,43.97
2023-01-25T21:49:54.097Z,44.92
2023-01-25T21:52:21.595Z,44.80
2023-01-25T21:54:49.125Z,46.51
2023-01-25T21:57:16.821Z,45.49
2023-01-25T21:59:44.323Z,45.64
2023-01-25T22:02:15.106Z,46.53
2023-01-25T22:04:42.811Z,45.74
2023-01-25T22:07:12.136Z,46.28
2023-01-25T22:09:39.728Z,45.24
2023-01-25T22:12:07.520Z,45.40
2023-01-25T22:14:35.236Z,46.12
2023-01-25T22:17:03.502Z,45.95
2023-01-25T22:19:30.986Z,46.12
2023-01-25T22:21:58.464Z,47.73
2023-01-25T22:24:26.160Z,48.75
2023-01-25T22:27:09.004Z,46.86
2023-01-25T22:29:36.565Z,46.91
2023-01-25T22:32:04.373Z,46.82
2023-01-25T22:34:31.925Z,45.50
2023-01-25T22:36:59.447Z,47.30
2023-01-25T22:39:27.545Z,46.26
2023-01-25T22:41:56.672Z,46.55
2023-01-25T22:44:24.172Z,45.08
2023-01-25T22:46:53.166Z,44.89
2023-01-25T22:49:20.778Z,46.07
2023-01-25T22:51:48.303Z,45.16
2023-01-25T22:54:15.750Z,45.14
2023-01-25T22:56:43.304Z,45.41
2023-01-25T22:59:15.035Z,44.89
2023-01-25T23:01:42.529Z,45.15
2023-01-25T23:04:10.216Z,44.83
2023-01-25T23:06:38.352Z,45.23
2023-01-25T23:09:15.842Z,45.13
2023-01-25T23:11:43.804Z,45.22
2023-01-25T23:14:31.269Z,45.40
2023-01-25T23:17:17.180Z,45.00
2023-01-25T23:19:45.140Z,45.29
2023-01-25T23:22:12.946Z,45.01
2023-01-25T23:24:40.557Z,45.36
2023-01-25T23:27:08.149Z,44.91
2023-01-25T23:29:35.661Z,45.32
2023-01-25T23:32:03.176Z,45.34
2023-01-25T23:34:35.088Z,46.04
2023-01-25T23:37:02.669Z,45.36
2023-01-25T23:39:30.253Z,45.29
2023-01-25T23:41:57.803Z,45.26
2023-01-25T23:44:25.361Z,46.18
2023-01-25T23:46:52.877Z,45.61
2023-01-25T23:49:20.560Z,46.06
2023-01-25T23:51:48.037Z,45.05
2023-01-25T23:54:15.708Z,46.14
2023-01-25T23:56:43.368Z,45.45
2023-01-25T23:59:10.999Z,45.59
